Time;durP1;ratioP1;P1;durP2;ratioP2;P2;SDS_P1;SDS_P2;PMS_P1;PMS_P2;Temp;Humidity;BMP_temperature;BMP_pressure;BME280_temperature;BME280_humidity;BME280_pressure;Samples;Min_cycle;Max_cycle;Signal;HPM_P1;HPM_P2
2024/02/05 00:01:47;;;;;;;29.23;20.85;;;;;;;;;;5051949;28;20124;-51
2024/02/05 00:04:14;;;;;;;27.95;20.55;;;;;;;;;;5054054;28;20072;-51
2024/02/05 00:06:40;;;;;;;27.25;19.95;;;;;;;;;;5051798;28;20064;-54
2024/02/05 00:09:07;;;;;;;26.80;20.58;;;;;;;;;;5053978;28;20033;-51
2024/02/05 00:11:34;;;;;;;28.08;19.70;;;;;;;;;;5053924;28;20071;-54
2024/02/05 00:14:02;;;;;;;26.77;19.40;;;;;;;;;;5053770;28;20492;-53
2024/02/05 00:16:28;;;;;;;27.10;19.67;;;12.40;99.40;;;;;;5053742;28;20033;-53
2024/02/05 00:18:54;;;;;;;27.73;19.65;;;;;;;;;;5053449;28;20050;-52
2024/02/05 00:21:20;;;;;;;30.85;21.52;;;12.00;99.90;;;;;;5052777;28;20032;-52
2024/02/05 00:23:46;;;;;;;27.92;20.92;;;;;;;;;;5053529;28;20025;-51
2024/02/05 00:26:12;;;;;;;32.17;21.55;;;;;;;;;;5053631;28;20080;-51
2024/02/05 00:28:39;;;;;;;27.10;20.05;;;;;;;;;;5053598;28;20029;-52
2024/02/05 00:31:05;;;;;;;30.27;21.88;;;;;;;;;;5053404;28;20040;-51
2024/02/05 00:33:31;;;;;;;26.75;20.65;;;;;;;;;;5053346;28;20484;-54
2024/02/05 00:35:57;;;;;;;28.35;20.83;;;11.60;99.90;;;;;;5053343;28;20025;-51
2024/02/05 00:38:23;;;;;;;26.05;20.30;;;;;;;;;;5051263;28;20068;-52
2024/02/05 00:40:51;;;;;;;23.42;18.67;;;;;;;;;;5053236;28;20032;-51
2024/02/05 00:43:17;;;;;;;24.58;18.55;;;;;;;;;;5053223;28;20496;-53
2024/02/05 00:45:43;;;;;;;28.00;17.00;;;11.80;99.90;;;;;;5053198;28;20111;-53
2024/02/05 00:48:09;;;;;;;25.08;18.27;;;;;;;;;;5053141;28;20599;-52
2024/02/05 00:50:36;;;;;;;26.17;19.15;;;;;;;;;;5053039;28;20428;-53
2024/02/05 00:53:02;;;;;;;27.40;19.15;;;;;;;;;;5052838;28;20489;-55
2024/02/05 00:55:29;;;;;;;26.55;18.83;;;;;;;;;;5053047;28;20116;-54
2024/02/05 00:57:55;;;;;;;29.08;19.80;;;;;;;;;;5052823;28;20032;-54
2024/02/05 01:00:23;;;;;;;26.48;17.77;;;;;;;;;;5052770;28;20491;-54
2024/02/05 01:02:51;;;;;;;25.50;18.40;;;;;;;;;;5051604;28;20419;-53
2024/02/05 01:05:17;;;;;;;22.48;16.90;;;;;;;;;;5053078;28;20044;-52
2024/02/05 01:07:43;;;;;;;27.25;18.02;;;;;;;;;;5050460;28;20047;-53
2024/02/05 01:10:12;;;;;;;26.50;18.33;;;;;;;;;;5052332;28;20041;-52
2024/02/05 01:12:39;;;;;;;27.17;17.38;;;;;;;;;;5052331;28;20056;-55
2024/02/05 01:15:05;;;;;;;26.63;17.77;;;11.70;99.90;;;;;;5052678;28;20029;-51
2024/02/05 01:17:31;;;;;;;23.92;18.08;;;11.80;99.90;;;;;;5052672;28;20122;-52
2024/02/05 01:19:57;;;;;;;27.98;17.83;;;11.80;99.90;;;;;;5052506;28;20029;-53
2024/02/05 01:22:23;;;;;;;25.90;18.33;;;11.70;99.90;;;;;;5051202;28;20079;-53
2024/02/05 01:24:49;;;;;;;29.50;18.33;;;11.70;99.90;;;;;;5052417;28;20484;-52
2024/02/05 01:27:15;;;;;;;26.98;18.73;;;11.70;99.90;;;;;;5052457;28;20464;-55
2024/02/05 01:29:42;;;;;;;25.20;17.50;;;11.50;99.90;;;;;;5051085;28;20067;-53
2024/02/05 01:32:08;;;;;;;26.10;17.23;;;11.60;99.90;;;;;;5052367;28;20079;-54
2024/02/05 01:34:33;;;;;;;26.40;16.80;;;11.50;99.90;;;;;;5033813;28;20041;-53
2024/02/05 01:36:59;;;;;;;25.63;17.70;;;11.50;99.90;;;;;;5052134;28;20034;-52
2024/02/05 01:39:25;;;;;;;25.35;16.52;;;11.50;99.90;;;;;;5052416;28;20025;-52
2024/02/05 01:41:51;;;;;;;25.98;16.08;;;11.50;99.90;;;;;;5050308;28;20522;-52
2024/02/05 01:44:17;;;;;;;27.00;17.13;;;11.50;99.90;;;;;;5052146;28;20033;-52
2024/02/05 01:46:43;;;;;;;22.45;15.85;;;11.50;99.90;;;;;;5052024;28;20377;-54
2024/02/05 01:49:10;;;;;;;24.23;16.35;;;11.60;99.90;;;;;;5051801;28;20032;-54
2024/02/05 01:51:45;;;;;;;22.50;16.50;;;11.40;99.90;;;;;;5051934;28;20025;-55
2024/02/05 01:54:13;;;;;;;22.00;16.83;;;11.40;99.90;;;;;;5049914;28;20037;-54
2024/02/05 01:56:40;;;;;;;22.08;16.20;;;11.40;99.90;;;;;;5052060;28;20024;-51
2024/02/05 01:59:06;;;;;;;25.08;17.05;;;11.40;99.90;;;;;;5051955;28;20086;-54
2024/02/05 02:01:37;;;;;;;26.05;17.27;;;11.30;99.90;;;;;;5033327;28;20433;-53
2024/02/05 02:04:05;;;;;;;25.45;18.70;;;11.20;99.90;;;;;;5052024;28;20821;-55
2024/02/05 02:06:32;;;;;;;28.60;18.70;;;11.20;99.90;;;;;;5051967;28;20566;-51
2024/02/05 02:08:58;;;;;;;26.95;18.90;;;11.10;99.90;;;;;;5052044;28;20025;-54
2024/02/05 02:11:25;;;;;;;28.25;19.00;;;11.20;99.90;;;;;;5051924;28;20025;-54
2024/02/05 02:13:50;;;;;;;25.77;18.23;;;11.20;99.90;;;;;;5051976;28;20029;-53
2024/02/05 02:16:18;;;;;;;23.95;18.17;;;;;;;;;;5049722;28;20124;-53
2024/02/05 02:18:46;;;;;;;25.45;18.00;;;;;;;;;;5051902;28;20045;-54
2024/02/05 02:21:14;;;;;;;27.58;19.50;;;;;;;;;;5055187;28;20033;-52
2024/02/05 02:23:41;;;;;;;26.58;20.05;;;;;;;;;;5055951;28;20024;-53
2024/02/05 02:26:07;;;;;;;28.90;20.05;;;;;;;;;;5055943;28;20062;-54
2024/02/05 02:28:33;;;;;;;28.88;19.13;;;;;;;;;;5053856;28;20072;-55
2024/02/05 02:31:00;;;;;;;29.27;19.80;;;;;;;;;;5053744;28;20095;-52
2024/02/05 02:33:40;;;;;;;27.40;19.20;;;;;;;;;;5055663;28;20071;-53
2024/02/05 02:36:10;;;;;;;27.45;20.13;;;;;;;;;;5055718;28;20099;-53
2024/02/05 02:38:45;;;;;;;27.50;18.60;;;;;;;;;;5055439;28;20056;-54
2024/02/05 02:41:14;;;;;;;27.65;20.25;;;;;;;;;;5055651;28;20025;-54
2024/02/05 02:43:54;;;;;;;34.45;20.83;;;;;;;;;;5055667;28;20037;-51
2024/02/05 02:46:20;;;;;;;25.70;19.98;;;;;;;;;;5055475;28;20029;-54
2024/02/05 02:48:47;;;;;;;27.75;20.23;;;;;;;;;;5055407;28;20512;-55
2024/02/05 02:51:13;;;;;;;24.90;18.55;;;;;;;;;;5055392;28;20033;-54
2024/02/05 02:53:39;;;;;;;25.65;18.75;;;;;;;;;;5055171;28;20127;-54
2024/02/05 02:56:05;;;;;;;26.15;19.30;;;;;;;;;;5055327;28;20786;-52
2024/02/05 02:58:32;;;;;;;42.80;25.48;;;;;;;;;;5055124;28;20400;-51
2024/02/05 03:00:58;;;;;;;56.05;28.95;;;;;;;;;;5055237;28;20035;-51
2024/02/05 03:03:24;;;;;;;62.28;33.42;;;;;;;;;;5055165;28;20048;-51
2024/02/05 03:05:51;;;;;;;36.42;22.63;;;;;;;;;;5051136;28;20033;-51
2024/02/05 03:08:18;;;;;;;48.75;28.95;;;;;;;;;;5034879;28;20036;-51
2024/02/05 03:10:44;;;;;;;46.70;28.15;;;;;;;;;;5034998;28;20065;-53
2024/02/05 03:13:10;;;;;;;44.08;28.50;;;;;;;;;;5032631;28;20064;-51
2024/02/05 03:15:36;;;;;;;38.03;26.00;;;;;;;;;;5032738;28;20038;-53
2024/02/05 03:18:03;;;;;;;42.08;26.55;;;;;;;;;;5032748;28;20242;-53
2024/02/05 03:20:39;;;;;;;41.15;28.13;;;;;;;;;;5049078;28;20052;-53
2024/02/05 03:23:06;;;;;;;51.85;28.40;;;;;;;;;;5032495;28;20037;-52
2024/02/05 03:25:33;;;;;;;93.47;44.88;;;;;;;;;;5032386;28;20358;-54
2024/02/05 03:27:59;;;;;;;101.70;47.08;;;;;;;;;;5032579;28;20072;-53
2024/02/05 03:30:29;;;;;;;56.50;30.25;;;;;;;;;;5032558;28;20040;-53
2024/02/05 03:32:55;;;;;;;44.30;26.00;;;;;;;;;;5031696;28;20052;-51
2024/02/05 03:35:22;;;;;;;33.60;23.33;;;;;;;;;;5032364;28;20026;-53
2024/02/05 03:37:48;;;;;;;31.48;23.25;;;;;;;;;;5032312;28;20049;-52
2024/02/05 03:40:15;;;;;;;33.30;24.08;;;;;;;;;;5032264;28;20029;-51
2024/02/05 03:42:41;;;;;;;30.67;23.10;;;;;;;;;;5032255;28;20061;-52
2024/02/05 03:45:08;;;;;;;70.68;39.67;;;;;;;;;;5034130;28;20041;-52
2024/02/05 03:47:34;;;;;;;60.72;36.67;;;;;;;;;;5042589;28;20534;-52
2024/02/05 03:50:01;;;;;;;46.28;28.17;;;;;;;;;;5052863;28;20033;-54
2024/02/05 03:52:27;;;;;;;40.13;24.63;;;;;;;;;;5054079;28;20060;-52
2024/02/05 03:54:53;;;;;;;47.90;27.42;;;;;;;;;;5052161;28;20120;-52
2024/02/05 03:57:19;;;;;;;46.80;29.70;;;;;;;;;;5051939;28;20056;-53
2024/02/05 03:59:46;;;;;;;54.42;31.35;;;;;;;;;;5053962;28;20135;-52
2024/02/05 04:02:12;;;;;;;50.47;31.63;;;;;;;;;;5054154;28;20423;-51
2024/02/05 04:04:39;;;;;;;43.42;29.88;;;;;;;;;;5053967;28;20036;-50
2024/02/05 04:07:06;;;;;;;34.35;24.48;;;;;;;;;;5051969;28;20040;-51
2024/02/05 04:09:32;;;;;;;40.28;25.13;;;;;;;;;;5053886;28;20040;-51
2024/02/05 04:11:58;;;;;;;48.70;31.15;;;;;;;;;;5053841;28;20021;-50
2024/02/05 04:14:24;;;;;;;39.08;26.67;;;;;;;;;;5053842;28;20040;-50
2024/02/05 04:16:50;;;;;;;32.03;22.77;;;;;;;;;;5053669;28;20100;-51
2024/02/05 04:19:17;;;;;;;32.10;22.10;;;;;;;;;;5053737;28;20048;-52
2024/02/05 04:21:43;;;;;;;31.73;21.83;;;;;;;;;;5053479;28;20036;-53
2024/02/05 04:24:09;;;;;;;35.97;21.90;;;;;;;;;;5053596;28;20106;-52
2024/02/05 04:26:35;;;;;;;31.33;21.85;;;;;;;;;;5051475;28;20075;-52
2024/02/05 04:29:04;;;;;;;30.30;21.33;;;;;;;;;;5051468;28;20083;-51
2024/02/05 04:31:30;;;;;;;29.40;21.45;;;;;;;;;;5051571;28;20037;-50
2024/02/05 04:33:56;;;;;;;33.03;23.00;;;;;;;;;;5052089;28;20029;-52
2024/02/05 04:36:22;;;;;;;28.88;20.42;;;;;;;;;;5031072;28;20045;-53
2024/02/05 04:38:48;;;;;;;29.30;20.58;;;;;;;;;;5030835;28;20228;-53
2024/02/05 04:41:14;;;;;;;30.17;20.35;;;;;;;;;;5031067;28;20048;-53
2024/02/05 04:43:41;;;;;;;25.42;17.23;;;;;;;;;;5030022;28;20025;-50
2024/02/05 04:46:09;;;;;;;26.90;19.67;;;8.50;99.90;;;;;;5031111;28;20037;-51
2024/02/05 04:48:35;;;;;;;30.65;20.10;;;8.80;99.90;;;;;;5030987;28;20060;-51
2024/02/05 04:51:01;;;;;;;25.92;19.40;;;8.80;99.90;;;;;;5030905;28;20041;-51
2024/02/05 04:53:27;;;;;;;26.48;17.75;;;8.80;99.90;;;;;;5030783;28;20087;-53
2024/02/05 04:55:52;;;;;;;29.75;17.73;;;8.70;99.90;;;;;;5030742;28;20072;-51
2024/02/05 04:58:19;;;;;;;31.33;20.80;;;8.70;99.90;;;;;;5030817;28;20053;-51
2024/02/05 05:00:48;;;;;;;32.15;20.27;;;8.80;99.90;;;;;;5030880;28;20068;-53
2024/02/05 05:03:15;;;;;;;30.70;22.73;;;8.80;99.90;;;;;;5014007;28;20120;-53
2024/02/05 05:05:42;;;;;;;32.28;19.77;;;8.60;99.90;;;;;;5030709;28;20033;-53
2024/02/05 05:08:08;;;;;;;23.85;15.48;;;8.50;99.90;;;;;;5048744;28;20041;-51
2024/02/05 05:10:33;;;;;;;25.25;17.38;;;8.40;99.90;;;;;;5052798;28;20548;-53
2024/02/05 05:13:02;;;;;;;25.85;17.27;;;8.40;99.90;;;;;;5050561;28;20037;-50
2024/02/05 05:15:27;;;;;;;27.73;18.10;;;8.40;99.90;;;;;;5052648;28;20035;-52
2024/02/05 05:17:53;;;;;;;28.08;18.65;;;8.50;99.90;;;;;;5052501;28;20045;-50
2024/02/05 05:20:19;;;;;;;25.13;17.13;;;8.70;99.90;;;;;;5052239;28;20116;-51
2024/02/05 05:22:45;;;;;;;24.27;17.58;;;8.80;99.90;;;;;;5050550;28;20511;-53
2024/02/05 05:25:11;;;;;;;25.85;16.95;;;8.70;99.90;;;;;;5050482;28;20037;-51
2024/02/05 05:27:36;;;;;;;24.65;16.10;;;8.70;99.90;;;;;;5050404;28;20574;-53
2024/02/05 05:30:02;;;;;;;14.07;9.57;;;8.60;99.90;;;;;;5036087;28;20608;-53
2024/02/05 05:32:28;;;;;;;25.33;16.80;;;8.50;99.90;;;;;;5013693;28;20044;-53
2024/02/05 05:34:54;;;;;;;27.60;18.05;;;8.50;99.90;;;;;;5047045;28;20037;-51
2024/02/05 05:37:20;;;;;;;27.60;18.35;;;8.50;99.90;;;;;;5046891;28;20057;-54
2024/02/05 05:39:45;;;;;;;19.95;9.35;;;8.60;99.90;;;;;;5046055;28;20472;-51
2024/02/05 05:42:11;;;;;;;31.10;21.10;;;8.50;99.90;;;;;;5037829;28;20037;-50
2024/02/05 05:44:37;;;;;;;68.72;36.83;;;8.50;99.90;;;;;;5032200;28;20477;-50
2024/02/05 05:47:03;;;;;;;69.75;35.40;;;8.80;99.90;;;;;;5032234;28;20106;-51
2024/02/05 05:49:29;;;;;;;37.22;22.70;;;9.00;99.90;;;;;;5032326;28;20030;-52
2024/02/05 05:51:56;;;;;;;37.97;24.65;;;9.10;99.90;;;;;;5061945;28;20051;-53
2024/02/05 05:54:22;;;;;;;33.28;22.35;;;9.40;99.90;;;;;;5063237;28;20377;-53
2024/02/05 05:56:48;;;;;;;31.40;22.58;;;9.40;99.90;;;;;;5058751;28;20048;-52
2024/02/05 05:59:15;;;;;;;31.33;21.98;;;9.30;99.90;;;;;;5049599;28;20083;-52
2024/02/05 06:01:41;;;;;;;30.48;23.65;;;9.30;99.90;;;;;;5052271;28;20037;-51
2024/02/05 06:04:06;;;;;;;33.83;23.52;;;9.30;99.90;;;;;;5047765;28;20131;-50
2024/02/05 06:06:33;;;;;;;38.65;26.40;;;9.40;99.90;;;;;;5069571;28;20476;-54
2024/02/05 06:09:04;;;;;;;35.53;23.23;;;9.60;99.90;;;;;;5060061;28;20035;-52
2024/02/05 06:11:30;;;;;;;37.47;24.25;;;9.70;99.90;;;;;;5049614;28;20040;-52
2024/02/05 06:13:57;;;;;;;42.70;29.80;;;9.80;99.90;;;;;;5049603;28;20032;-50
2024/02/05 06:16:23;;;;;;;45.90;24.58;;;9.90;99.90;;;;;;5033069;28;20436;-53
2024/02/05 06:18:48;;;;;;;36.60;23.58;;;10.00;99.90;;;;;;5049549;28;20044;-52
2024/02/05 06:21:14;;;;;;;31.13;21.20;;;10.10;99.90;;;;;;5049469;28;20483;-50
2024/02/05 06:23:40;;;;;;;34.65;22.75;;;10.30;99.90;;;;;;5037238;28;20044;-50
2024/02/05 06:26:07;;;;;;;33.58;22.83;;;10.30;99.90;;;;;;5039520;28;20107;-51
2024/02/05 06:28:33;;;;;;;38.08;25.65;;;10.20;99.90;;;;;;5038819;28;20041;-53
2024/02/05 06:30:59;;;;;;;42.33;27.25;;;10.20;99.90;;;;;;5056742;28;20036;-50
2024/02/05 06:33:25;;;;;;;108.55;57.47;;;10.00;99.90;;;;;;5040280;28;20033;-53
2024/02/05 06:35:51;;;;;;;46.17;27.70;;;9.80;99.90;;;;;;5038950;28;20086;-52
2024/02/05 06:38:17;;;;;;;44.38;29.52;;;9.60;99.90;;;;;;5035105;28;20524;-52
2024/02/05 06:40:43;;;;;;;54.10;43.70;;;9.40;99.90;;;;;;5017424;28;20050;-51
2024/02/05 06:43:09;;;;;;;154.63;137.18;;;9.50;99.90;;;;;;5038844;28;20495;-54
2024/02/05 06:45:37;;;;;;;109.07;97.63;;;9.60;99.90;;;;;;5040614;28;20106;-52
2024/02/05 06:48:04;;;;;;;62.65;54.97;;;9.80;99.90;;;;;;5041149;28;20052;-51
2024/02/05 06:50:30;;;;;;;45.65;33.28;;;10.00;99.90;;;;;;5019168;28;20508;-53
2024/02/05 06:52:55;;;;;;;37.00;28.80;;;10.00;99.90;;;;;;5040091;28;20041;-53
2024/02/05 06:55:21;;;;;;;36.03;24.98;;;10.00;99.90;;;;;;5037737;28;20033;-53
2024/02/05 06:57:48;;;;;;;30.95;21.50;;;10.10;99.90;;;;;;5037995;28;20041;-52
2024/02/05 07:00:14;;;;;;;29.48;22.02;;;9.90;99.90;;;;;;5047234;28;20033;-54
2024/02/05 07:02:40;;;;;;;30.35;22.02;;;9.90;99.90;;;;;;5037794;28;20037;-52
2024/02/05 07:05:07;;;;;;;31.40;22.27;;;10.00;99.90;;;;;;5028275;28;20042;-51
2024/02/05 07:07:33;;;;;;;31.67;20.63;;;10.00;99.90;;;;;;5042412;28;20075;-52
2024/02/05 07:10:00;;;;;;;27.80;20.77;;;10.10;99.90;;;;;;5071411;28;20033;-52
2024/02/05 07:12:26;;;;;;;32.67;24.02;;;10.30;99.90;;;;;;5051383;28;20041;-54
2024/02/05 07:14:52;;;;;;;30.05;23.35;;;10.20;99.90;;;;;;5052700;28;20048;-51
2024/02/05 07:17:18;;;;;;;32.25;24.08;;;10.20;99.90;;;;;;5059023;28;20122;-52
2024/02/05 07:19:44;;;;;;;30.30;23.30;;;10.50;99.90;;;;;;5061768;28;20090;-51
2024/02/05 07:22:10;;;;;;;32.22;22.73;;;10.50;99.90;;;;;;5052329;28;20037;-53
2024/02/05 07:24:36;;;;;;;32.00;22.88;;;10.40;99.90;;;;;;5051318;28;20450;-52
2024/02/05 07:27:02;;;;;;;35.90;27.30;;;10.40;99.90;;;;;;5051290;28;20029;-53
2024/02/05 07:29:28;;;;;;;47.22;32.08;;;10.50;99.90;;;;;;5051057;28;20124;-53
2024/02/05 07:31:54;;;;;;;54.65;39.75;;;10.40;99.90;;;;;;5055801;28;20089;-52
2024/02/05 07:34:21;;;;;;;38.53;26.40;;;10.40;99.90;;;;;;5066938;28;20044;-51
2024/02/05 07:36:47;;;;;;;31.33;23.20;;;10.40;99.90;;;;;;5050275;28;20036;-52
2024/02/05 07:39:13;;;;;;;33.80;23.20;;;10.40;99.90;;;;;;5050857;28;20150;-52
2024/02/05 07:41:39;;;;;;;63.35;25.30;;;;;;;;;;5050615;28;20056;-51
2024/02/05 07:44:05;;;;;;;32.00;24.60;;;10.90;99.90;;;;;;5045234;28;20037;-51
2024/02/05 07:46:31;;;;;;;31.98;23.70;;;11.10;99.90;;;;;;5042604;28;20049;-53
2024/02/05 07:48:57;;;;;;;31.10;22.50;;;11.00;99.90;;;;;;5010950;28;20065;-51
2024/02/05 07:51:23;;;;;;;28.38;20.15;;;11.20;99.90;;;;;;5010589;28;20490;-52
2024/02/05 07:53:49;;;;;;;33.42;21.35;;;11.00;99.70;;;;;;5010582;28;20121;-53
2024/02/05 07:56:16;;;;;;;28.40;20.80;;;10.90;99.90;;;;;;5026711;28;20565;-53
2024/02/05 07:58:42;;;;;;;30.45;22.33;;;10.80;99.90;;;;;;5006760;28;20046;-52
2024/02/05 08:01:09;;;;;;;32.17;24.42;;;10.90;99.90;;;;;;5008250;28;20029;-51
2024/02/05 08:03:36;;;;;;;35.95;27.33;;;11.10;99.90;;;;;;5011510;28;20486;-52
2024/02/05 08:06:07;;;;;;;47.28;35.55;;;11.40;99.90;;;;;;5011169;28;20040;-52
2024/02/05 08:08:33;;;;;;;72.88;45.05;;;12.00;99.90;;;;;;5010720;28;20056;-51
2024/02/05 08:10:59;;;;;;;57.95;33.10;;;12.40;98.20;;;;;;5033968;28;20123;-51
2024/02/05 08:13:25;;;;;;;38.33;26.75;;;12.50;97.00;;;;;;5044294;28;20033;-51
2024/02/05 08:15:51;;;;;;;65.32;36.13;;;;;;;;;;5055354;28;20044;-51
2024/02/05 08:18:17;;;;;;;100.03;54.70;;;;;;;;;;5057806;28;20029;-51
2024/02/05 08:20:43;;;;;;;72.97;45.83;;;15.30;99.90;;;;;;5060231;28;20112;-51
2024/02/05 08:23:10;;;;;;;63.80;35.60;;;15.40;94.40;;;;;;5053953;28;20040;-54
2024/02/05 08:25:37;;;;;;;57.92;34.90;;;;;;;;;;5063537;28;20513;-53
2024/02/05 08:28:05;;;;;;;88.22;56.17;;;16.70;99.90;;;;;;5056977;28;20103;-53
2024/02/05 08:30:30;;;;;;;110.93;65.93;;;16.70;92.20;;;;;;5040414;28;20455;-52
2024/02/05 08:32:56;;;;;;;99.82;54.10;;;;;;;;;;5043824;28;20016;-52
2024/02/05 08:35:22;;;;;;;100.35;57.83;;;17.30;99.90;;;;;;5038612;28;20022;-54
2024/02/05 08:37:48;;;;;;;90.30;56.70;;;17.40;90.70;;;;;;5039733;28;20489;-51
2024/02/05 08:40:14;;;;;;;130.27;83.68;;;17.60;94.30;;;;;;5041153;28;20033;-53
2024/02/05 08:42:40;;;;;;;62.65;42.17;;;18.20;90.80;;;;;;5042808;28;20029;-53
2024/02/05 08:45:07;;;;;;;54.13;33.15;;;18.70;94.50;;;;;;5044080;28;20028;-52
2024/02/05 08:47:33;;;;;;;41.53;26.25;;;;;;;;;;5028005;28;20524;-53
2024/02/05 08:49:59;;;;;;;30.30;22.50;;;19.70;87.50;;;;;;5012578;28;20058;-53
2024/02/05 08:52:25;;;;;;;16.35;12.10;;;20.10;86.10;;;;;;5013413;28;20099;-52
2024/02/05 08:54:51;;;;;;;19.17;11.73;;;;;;;;;;5027744;28;20025;-54
2024/02/05 08:57:17;;;;;;;19.55;13.02;;;20.70;99.90;;;;;;5014152;28;20033;-54
2024/02/05 08:59:42;;;;;;;26.70;13.75;;;20.60;80.00;;;;;;5013679;28;20409;-53
2024/02/05 09:02:08;;;;;;;17.25;13.43;;;20.80;80.10;;;;;;5030614;28;20049;-54
2024/02/05 09:04:34;;;;;;;19.65;12.90;;;20.50;79.40;;;;;;5030611;28;20040;-53
2024/02/05 09:07:00;;;;;;;21.92;13.95;;;20.20;78.80;;;;;;5029241;28;20041;-53
2024/02/05 09:09:25;;;;;;;21.05;13.60;;;20.00;79.90;;;;;;5011584;28;20033;-50
2024/02/05 09:11:51;;;;;;;21.80;13.63;;;20.00;80.30;;;;;;5029717;28;20049;-52
2024/02/05 09:14:17;;;;;;;19.85;11.90;;;19.70;80.20;;;;;;5029584;28;20092;-51
2024/02/05 09:16:43;;;;;;;21.77;12.07;;;19.30;78.50;;;;;;5012160;28;20181;-51
2024/02/05 09:19:09;;;;;;;22.55;13.95;;;19.00;78.80;;;;;;5029780;28;20045;-51
2024/02/05 09:21:34;;;;;;;21.23;14.55;;;18.70;80.30;;;;;;5030151;28;20045;-50
2024/02/05 09:24:00;;;;;;;20.65;15.98;;;18.70;81.40;;;;;;5030549;28;20059;-50
2024/02/05 09:26:26;;;;;;;21.50;15.18;;;;;;;;;;5032545;28;20033;-52
2024/02/05 09:28:52;;;;;;;27.77;15.80;;;;;;;;;;5032378;28;20061;-52
2024/02/05 09:31:18;;;;;;;20.58;14.40;;;;;;;;;;5032267;28;20025;-52
2024/02/05 09:33:44;;;;;;;39.70;17.02;;;18.80;99.20;;;;;;5030454;28;20048;-53
2024/02/05 09:36:10;;;;;;;20.90;15.95;;;18.50;84.10;;;;;;5032418;28;20385;-51
2024/02/05 09:38:36;;;;;;;25.20;17.42;;;18.10;85.10;;;;;;5030159;28;20124;-52
2024/02/05 09:41:06;;;;;;;25.60;18.02;;;17.90;86.10;;;;;;5032429;28;20029;-51
2024/02/05 09:43:35;;;;;;;26.75;17.88;;;17.90;86.50;;;;;;5047882;28;20045;-51
2024/02/05 09:46:05;;;;;;;23.55;18.13;;;17.50;90.00;;;;;;5032063;28;20064;-51
2024/02/05 09:48:35;;;;;;;26.17;19.90;;;17.20;90.60;;;;;;5039443;28;20480;-50
2024/02/05 09:51:04;;;;;;;25.25;17.83;;;;;;;;;;5041092;28;20024;-52
2024/02/05 09:53:32;;;;;;;27.80;20.17;;;16.70;88.40;;;;;;5041453;28;20056;-50
2024/02/05 09:55:58;;;;;;;47.08;21.98;;;16.80;90.10;;;;;;5041989;28;20037;-50
2024/02/05 09:58:26;;;;;;;31.00;21.08;;;17.20;90.50;;;;;;5040872;28;20025;-53
2024/02/05 10:00:52;;;;;;;31.92;21.27;;;;;;;;;;5042391;28;20029;-53
2024/02/05 10:03:18;;;;;;;32.80;21.02;;;18.00;87.60;;;;;;5031413;28;20037;-50
2024/02/05 10:05:46;;;;;;;38.25;21.83;;;17.90;87.90;;;;;;5046007;28;20374;-53
2024/02/05 10:08:13;;;;;;;33.00;22.80;;;18.20;88.30;;;;;;5032098;28;20041;-51
2024/02/05 10:10:44;;;;;;;41.25;23.83;;;18.30;88.50;;;;;;5032127;28;20104;-52
2024/02/05 10:13:11;;;;;;;34.40;21.10;;;18.20;88.20;;;;;;5038862;28;20066;-52
2024/02/05 10:15:39;;;;;;;24.13;16.58;;;18.10;88.60;;;;;;5034597;28;20048;-51
2024/02/05 10:18:05;;;;;;;27.75;18.70;;;18.30;88.20;;;;;;5031842;28;20043;-52
2024/02/05 10:20:34;;;;;;;33.40;19.13;;;18.40;88.70;;;;;;4996901;28;20460;-51
2024/02/05 10:23:00;;;;;;;33.42;16.73;;;18.50;88.90;;;;;;5035771;28;20508;-53
2024/02/05 10:25:27;;;;;;;21.95;12.70;;;18.40;88.50;;;;;;5048420;28;20786;-51
2024/02/05 10:28:06;;;;;;;21.48;10.45;;;18.70;87.30;;;;;;5042312;28;20029;-52
2024/02/05 10:30:33;;;;;;;23.15;9.32;;;18.50;87.30;;;;;;5031938;28;20556;-53
2024/02/05 10:33:03;;;;;;;16.65;8.40;;;18.30;87.70;;;;;;5031787;28;20473;-50
2024/02/05 10:35:29;;;;;;;17.67;8.15;;;18.10;87.00;;;;;;5031591;28;20077;-52
2024/02/05 10:38:08;;;;;;;16.60;9.32;;;17.90;86.00;;;;;;5044847;28;20084;-51
2024/02/05 10:40:36;;;;;;;20.30;10.40;;;17.90;85.10;;;;;;5042534;28;20038;-52
2024/02/05 10:43:08;;;;;;;22.30;11.43;;;;;;;;;;5043279;28;20029;-51
2024/02/05 10:45:34;;;;;;;19.27;11.20;;;17.60;84.20;;;;;;5044144;28;20053;-52
2024/02/05 10:48:01;;;;;;;19.52;13.13;;;;;;;;;;5038426;28;20552;-53
2024/02/05 10:50:28;;;;;;;26.55;15.95;;;;;;;;;;5048662;28;20040;-49
2024/02/05 10:52:54;;;;;;;26.77;15.70;;;;;;;;;;5055180;28;20056;-51
2024/02/05 10:55:20;;;;;;;21.13;12.18;;;;;;;;;;5053262;28;20119;-52
2024/02/05 10:57:49;;;;;;;18.67;13.68;;;16.80;86.00;;;;;;5036106;28;20041;-52
2024/02/05 11:00:18;;;;;;;21.73;13.85;;;;;;;;;;5013127;28;20080;-52
2024/02/05 11:02:47;;;;;;;27.38;13.93;;;;;;;;;;5013173;28;20397;-51
2024/02/05 11:05:14;;;;;;;21.17;13.65;;;16.60;86.30;;;;;;5018709;28;20116;-51
2024/02/05 11:07:52;;;;;;;20.40;14.07;;;16.40;86.80;;;;;;5020873;28;20112;-50
2024/02/05 11:10:23;;;;;;;20.52;14.02;;;16.40;87.40;;;;;;5016168;28;20050;-51
2024/02/05 11:12:58;;;;;;;23.70;14.93;;;16.50;87.20;;;;;;5029136;28;20104;-52
2024/02/05 11:15:29;;;;;;;21.77;14.38;;;16.40;87.50;;;;;;5032713;28;20396;-52
2024/02/05 11:17:57;;;;;;;22.33;15.43;;;16.50;88.10;;;;;;5032772;28;20040;-52
2024/02/05 11:20:25;;;;;;;19.17;12.80;;;16.60;88.00;;;;;;5026768;28;20088;-51
2024/02/05 11:22:52;;;;;;;23.73;15.63;;;16.60;86.70;;;;;;5025674;28;20120;-51
2024/02/05 11:25:18;;;;;;;27.20;15.32;;;16.70;87.30;;;;;;5022535;28;20174;-53
2024/02/05 11:27:43;;;;;;;21.52;14.98;;;16.60;86.60;;;;;;5032081;28;20030;-51
2024/02/05 11:30:10;;;;;;;19.58;13.20;;;16.70;87.80;;;;;;5016881;28;20084;-51
2024/02/05 11:32:36;;;;;;;23.80;14.80;;;16.80;86.50;;;;;;5042287;28;20045;-54
2024/02/05 11:35:02;;;;;;;21.05;15.38;;;16.90;86.20;;;;;;5041058;28;20108;-52
2024/02/05 11:37:30;;;;;;;22.30;15.40;;;17.00;87.10;;;;;;5054077;28;20123;-53
2024/02/05 11:39:58;;;;;;;38.65;24.88;;;17.20;86.50;;;;;;5054488;28;20032;-51
2024/02/05 11:42:27;;;;;;;40.25;24.80;;;17.10;85.50;;;;;;5053288;28;20037;-55
2024/02/05 11:44:59;;;;;;;39.95;24.00;;;17.20;85.40;;;;;;5054388;28;20362;-51
2024/02/05 11:47:25;;;;;;;;;;;17.30;85.80;;;;;;5054855;28;20036;-53
2024/02/05 11:49:55;;;;;;;24.98;15.38;;;17.10;85.30;;;;;;5054481;28;19908;-52
2024/02/05 11:52:21;;;;;;;22.60;15.48;;;17.20;86.00;;;;;;5053722;28;20049;-51
2024/02/05 11:54:46;;;;;;;26.58;15.45;;;17.00;86.30;;;;;;5054273;28;20031;-54
2024/02/05 11:57:12;;;;;;;26.67;17.65;;;16.90;86.60;;;;;;5054113;28;20036;-54
2024/02/05 11:59:38;;;;;;;32.05;17.58;;;;;;;;;;5054182;28;20033;-53
2024/02/05 12:02:06;;;;;;;38.25;25.73;;;;;;;;;;5054226;28;20029;-51
2024/02/05 12:04:32;;;;;;;42.03;29.13;;;;;;;;;;5054089;28;20041;-53
2024/02/05 12:06:58;;;;;;;40.85;24.63;;;;;;;;;;5054008;28;20064;-50
2024/02/05 12:09:24;;;;;;;31.02;20.42;;;17.80;94.40;;;;;;5054044;28;20496;-54
2024/02/05 12:11:51;;;;;;;27.23;18.02;;;17.90;88.40;;;;;;5054015;28;20021;-53
2024/02/05 12:14:17;;;;;;;23.80;18.08;;;18.40;87.00;;;;;;5053902;28;20116;-51
2024/02/05 12:16:42;;;;;;;20.75;16.98;;;19.20;86.50;;;;;;5053247;28;20060;-52
2024/02/05 12:19:18;;;;;;;26.40;17.98;;;19.70;85.40;;;;;;5051580;28;20077;-52
2024/02/05 12:21:44;;;;;;;30.20;19.17;;;20.40;89.90;;;;;;5051893;28;20432;-54
2024/02/05 12:24:10;;;;;;;24.55;16.65;;;20.40;84.10;;;;;;5053736;28;20071;-54
2024/02/05 12:26:36;;;;;;;22.17;16.10;;;;;;;;;;5034978;28;20037;-54
2024/02/05 12:29:02;;;;;;;27.10;16.45;;;21.10;92.30;;;;;;5053671;28;20491;-54
2024/02/05 12:31:28;;;;;;;20.17;14.60;;;20.60;93.10;;;;;;5053575;28;20024;-53
2024/02/05 12:33:57;;;;;;;17.85;14.75;;;20.60;81.90;;;;;;5053561;28;20035;-52
2024/02/05 12:36:24;;;;;;;21.13;16.15;;;;;;;;;;5053535;28;20376;-51
2024/02/05 12:38:52;;;;;;;23.50;17.35;;;;;;;;;;5053345;28;20036;-50
2024/02/05 12:41:18;;;;;;;25.08;16.48;;;21.10;81.50;;;;;;5053452;28;20033;-52
2024/02/05 12:43:44;;;;;;;20.13;14.60;;;;;;;;;;5053330;28;20021;-51
2024/02/05 12:46:11;;;;;;;21.52;14.75;;;21.70;80.80;;;;;;5053121;28;20020;-51
2024/02/05 12:48:37;;;;;;;15.50;11.15;;;22.10;80.70;;;;;;5052768;28;20104;-53
2024/02/05 12:51:07;;;;;;;15.45;11.75;;;21.90;78.70;;;;;;5053152;28;20041;-52
2024/02/05 12:53:32;;;;;;;16.05;10.85;;;22.10;77.90;;;;;;5053019;28;20060;-54
2024/02/05 12:55:58;;;;;;;17.55;11.95;;;21.70;78.40;;;;;;5053056;28;20033;-54
2024/02/05 12:58:26;;;;;;;14.63;11.32;;;22.00;79.10;;;;;;5050981;28;20045;-52
2024/02/05 13:00:54;;;;;;;15.00;10.52;;;;;;;;;;5034292;28;20428;-55
2024/02/05 13:03:19;;;;;;;15.05;11.40;;;22.10;77.40;;;;;;5050893;28;20037;-53